createdAt,value
2018-12-27T00:00:24.173Z,30.33
2018-12-27T00:02:56.451Z,29.03
2018-12-27T00:05:25.241Z,27.90
2018-12-27T00:07:54.042Z,29.27
2018-12-27T00:10:22.823Z,28.43
2018-12-27T00:12:51.723Z,29.07
2018-12-27T00:15:22.727Z,30.10
2018-12-27T00:17:51.633Z,28.63
2018-12-27T00:20:21.351Z,29.07
2018-12-27T00:22:50.139Z,30.07
2018-12-27T00:25:20.538Z,30.83
2018-12-27T00:27:49.227Z,31.47
2018-12-27T00:30:24.859Z,29.93
2018-12-27T00:32:54.473Z,30.23
2018-12-27T00:35:23.252Z,29.47
2018-12-27T00:37:52.842Z,28.30
2018-12-27T00:40:22.409Z,29.63
2018-12-27T00:42:51.887Z,29.90
2018-12-27T00:45:20.786Z,28.30
2018-12-27T00:47:49.686Z,29.07
2018-12-27T00:50:18.460Z,30.50
2018-12-27T00:52:47.268Z,29.17
2018-12-27T00:55:16.089Z,27.27
2018-12-27T00:57:44.907Z,28.73
2018-12-27T01:00:13.699Z,27.93
2018-12-27T01:02:42.560Z,28.03
2018-12-27T01:05:11.352Z,28.10
2018-12-27T01:07:40.134Z,28.53
2018-12-27T01:10:08.923Z,28.20
2018-12-27T01:12:38.856Z,27.57
2018-12-27T01:15:07.656Z,27.93
2018-12-27T01:17:36.468Z,28.17
2018-12-27T01:20:05.261Z,27.37
2018-12-27T01:22:34.084Z,29.80
2018-12-27T01:25:03.455Z,28.00
2018-12-27T01:27:33.370Z,26.93
2018-12-27T01:30:02.149Z,28.37
2018-12-27T01:32:30.943Z,26.17
2018-12-27T01:34:59.736Z,26.30
2018-12-27T01:37:28.519Z,27.67
2018-12-27T01:39:58.138Z,27.07
2018-12-27T01:42:27.015Z,28.50
2018-12-27T01:44:55.771Z,27.20
2018-12-27T01:47:24.584Z,26.50
2018-12-27T01:49:53.379Z,28.30
2018-12-27T01:52:22.161Z,27.67
2018-12-27T01:54:50.949Z,28.60
2018-12-27T01:57:19.735Z,27.87
2018-12-27T01:59:48.523Z,25.77
2018-12-27T02:02:17.315Z,27.57
2018-12-27T02:04:46.636Z,25.27
2018-12-27T02:07:15.454Z,25.87
2018-12-27T02:09:44.243Z,25.53
2018-12-27T02:12:13.040Z,26.33
2018-12-27T02:14:41.876Z,27.33
2018-12-27T02:17:10.660Z,28.57
2018-12-27T02:19:39.449Z,31.70
2018-12-27T02:22:08.219Z,30.00
2018-12-27T02:24:37.754Z,29.63
2018-12-27T02:27:07.612Z,26.37
2018-12-27T02:29:36.342Z,27.97
2018-12-27T02:32:05.134Z,26.67
2018-12-27T02:34:34.655Z,30.23
2018-12-27T02:37:03.576Z,29.87
2018-12-27T02:39:32.377Z,28.57
2018-12-27T02:42:01.162Z,31.00
2018-12-27T02:44:29.975Z,30.00
2018-12-27T02:46:58.780Z,29.87
2018-12-27T02:49:27.554Z,28.97
2018-12-27T02:51:56.347Z,29.10
2018-12-27T02:54:25.127Z,27.33
2018-12-27T02:56:53.935Z,28.10
2018-12-27T02:59:23.627Z,30.23
2018-12-27T03:01:52.420Z,28.27
2018-12-27T03:04:22.275Z,27.30
2018-12-27T03:06:51.060Z,27.10
2018-12-27T03:09:19.880Z,28.33
2018-12-27T03:11:48.655Z,30.27
2018-12-27T03:14:17.991Z,28.47
2018-12-27T03:16:46.767Z,27.60
2018-12-27T03:19:15.562Z,30.23
2018-12-27T03:21:46.080Z,28.20
2018-12-27T03:24:14.872Z,30.40
2018-12-27T03:26:43.682Z,30.97
2018-12-27T03:29:12.509Z,31.33
2018-12-27T03:31:41.326Z,31.93
2018-12-27T03:34:10.412Z,28.87
2018-12-27T03:36:39.201Z,28.80
2018-12-27T03:39:07.984Z,28.30
2018-12-27T03:41:36.818Z,27.73
2018-12-27T03:44:05.605Z,28.90
2018-12-27T03:46:34.378Z,29.43
2018-12-27T03:49:03.182Z,27.93
2018-12-27T03:51:32.819Z,29.90
2018-12-27T03:54:01.635Z,26.23
2018-12-27T03:56:31.383Z,26.27
2018-12-27T03:59:00.635Z,28.90
2018-12-27T04:01:29.416Z,25.80
2018-12-27T04:04:01.590Z,24.37
2018-12-27T04:06:27.875Z,31.20
2018-12-27T04:08:58.358Z,28.70
2018-12-27T04:11:27.169Z,25.17
2018-12-27T04:13:55.959Z,28.97
2018-12-27T04:16:24.729Z,28.20
2018-12-27T04:18:53.611Z,28.37
2018-12-27T04:21:22.675Z,29.20
2018-12-27T04:23:52.308Z,29.03
2018-12-27T04:26:21.563Z,28.77
2018-12-27T04:28:50.405Z,28.13
2018-12-27T04:31:19.659Z,26.13
2018-12-27T04:33:48.477Z,26.47
2018-12-27T04:36:17.285Z,28.73
2018-12-27T04:38:46.122Z,26.90
2018-12-27T04:41:15.462Z,30.27
2018-12-27T04:43:44.395Z,28.87
2018-12-27T04:46:13.168Z,29.37
2018-12-27T04:48:41.975Z,28.90
2018-12-27T04:51:10.768Z,27.30
2018-12-27T04:53:40.546Z,25.27
2018-12-27T04:56:09.328Z,27.37
2018-12-27T04:58:38.244Z,26.23
2018-12-27T05:01:07.697Z,26.20
2018-12-27T05:03:36.509Z,26.03
2018-12-27T05:06:11.664Z,24.73
2018-12-27T05:08:40.507Z,24.40
2018-12-27T05:11:10.294Z,24.27
2018-12-27T05:13:39.750Z,27.23
2018-12-27T05:16:09.346Z,24.20
2018-12-27T05:18:38.242Z,25.90
2018-12-27T05:21:07.123Z,27.43
2018-12-27T05:23:36.207Z,23.63
2018-12-27T05:26:05.551Z,22.87
2018-12-27T05:28:34.404Z,23.70
2018-12-27T05:31:04.436Z,29.73
2018-12-27T05:33:35.130Z,23.87
2018-12-27T05:36:03.893Z,24.07
2018-12-27T05:38:32.699Z,25.60
2018-12-27T05:41:01.485Z,23.87
2018-12-27T05:43:30.308Z,28.47
2018-12-27T05:45:59.207Z,25.77
2018-12-27T05:48:28.037Z,26.87
2018-12-27T05:50:56.887Z,24.20
2018-12-27T05:53:25.714Z,26.67
2018-12-27T05:55:54.554Z,22.93
2018-12-27T05:58:23.402Z,24.60
2018-12-27T06:00:52.204Z,25.30
2018-12-27T06:03:21.051Z,23.60
2018-12-27T06:05:50.200Z,24.93
2018-12-27T06:08:18.987Z,25.47
2018-12-27T06:10:47.864Z,25.87
2018-12-27T06:13:18.584Z,22.73
2018-12-27T06:15:47.427Z,29.50
2018-12-27T06:18:16.318Z,26.67
2018-12-27T06:20:45.119Z,33.63
2018-12-27T06:23:14.451Z,29.90
2018-12-27T06:25:43.244Z,30.40
2018-12-27T06:28:12.024Z,27.10
2018-12-27T06:30:40.819Z,28.33
2018-12-27T06:33:10.762Z,28.07
2018-12-27T06:35:40.335Z,25.33
2018-12-27T06:38:09.123Z,27.00
2018-12-27T06:40:39.076Z,26.70
2018-12-27T06:43:07.952Z,29.70
2018-12-27T06:45:36.838Z,27.43
2018-12-27T06:48:07.008Z,25.20
2018-12-27T06:50:35.883Z,26.67
2018-12-27T06:53:04.675Z,30.53
2018-12-27T06:55:34.731Z,28.73
2018-12-27T06:58:03.563Z,32.33
2018-12-27T07:00:32.877Z,32.83
2018-12-27T07:03:01.750Z,30.67
2018-12-27T07:05:30.691Z,29.43
2018-12-27T07:08:00.838Z,27.27
2018-12-27T07:10:29.830Z,23.03
2018-12-27T07:12:58.615Z,22.90
2018-12-27T07:15:28.073Z,28.70
2018-12-27T07:17:57.514Z,25.10
2018-12-27T07:20:26.576Z,31.07
2018-12-27T07:22:55.424Z,28.87
2018-12-27T07:25:25.016Z,31.00
2018-12-27T07:27:53.882Z,28.90
2018-12-27T07:30:22.685Z,26.97
2018-12-27T07:32:51.479Z,23.87
2018-12-27T07:35:21.268Z,25.43
2018-12-27T07:37:50.047Z,22.87
2018-12-27T07:40:18.895Z,21.57
2018-12-27T07:42:47.960Z,26.43
2018-12-27T07:45:17.287Z,26.90
2018-12-27T07:47:47.243Z,26.33
2018-12-27T07:50:16.223Z,25.87
2018-12-27T07:52:45.066Z,25.50
2018-12-27T07:55:13.850Z,30.20
2018-12-27T07:57:43.759Z,30.57
2018-12-27T08:00:12.583Z,28.67
2018-12-27T08:02:41.367Z,27.07
2018-12-27T08:05:10.819Z,28.73
2018-12-27T08:07:39.621Z,32.63
2018-12-27T08:10:08.416Z,28.17
2018-12-27T08:12:37.720Z,25.43
2018-12-27T08:15:07.093Z,25.00
2018-12-27T08:17:35.879Z,30.33
2018-12-27T08:20:04.783Z,27.33
2018-12-27T08:22:33.623Z,25.80
2018-12-27T08:25:03.147Z,27.70
2018-12-27T08:27:32.602Z,26.93
2018-12-27T08:30:01.383Z,27.40
2018-12-27T08:32:31.649Z,25.10
2018-12-27T08:35:01.160Z,27.10
2018-12-27T08:37:29.994Z,27.60
2018-12-27T08:39:59.151Z,24.27
2018-12-27T08:42:28.073Z,26.53
2018-12-27T08:44:57.988Z,25.90
2018-12-27T08:47:26.775Z,27.77
2018-12-27T08:49:55.627Z,24.90
2018-12-27T08:52:24.461Z,25.90
2018-12-27T08:54:53.240Z,26.37
2018-12-27T08:57:22.028Z,27.20
2018-12-27T08:59:51.411Z,27.77
2018-12-27T09:02:20.303Z,27.63
2018-12-27T09:04:49.620Z,24.23
2018-12-27T09:07:18.443Z,25.53
2018-12-27T09:09:47.832Z,24.90
2018-12-27T09:12:16.679Z,25.43
2018-12-27T09:14:45.633Z,23.83
2018-12-27T09:17:14.489Z,23.27
2018-12-27T09:19:43.277Z,23.43
2018-12-27T09:22:12.071Z,22.90
2018-12-27T09:24:40.911Z,21.60
2018-12-27T09:27:10.423Z,23.27
2018-12-27T09:29:39.326Z,23.77
2018-12-27T09:32:08.244Z,24.73
2018-12-27T09:34:37.793Z,22.93
2018-12-27T09:37:06.581Z,21.47
2018-12-27T09:39:35.424Z,22.00
2018-12-27T09:42:05.223Z,21.87
2018-12-27T09:44:35.370Z,21.93
2018-12-27T09:47:04.255Z,22.43
2018-12-27T09:49:37.087Z,22.70
2018-12-27T09:52:05.835Z,22.87
2018-12-27T09:54:35.592Z,20.97
2018-12-27T09:57:04.432Z,22.17
2018-12-27T09:59:33.285Z,20.00
2018-12-27T10:02:02.141Z,21.90
2018-12-27T10:04:32.447Z,21.63
2018-12-27T10:07:02.295Z,21.87
2018-12-27T10:09:32.792Z,21.73
2018-12-27T10:12:02.397Z,21.73
2018-12-27T10:14:31.235Z,20.90
2018-12-27T10:17:00.061Z,19.97
2018-12-27T10:19:29.084Z,21.30
2018-12-27T10:21:57.839Z,24.70
2018-12-27T10:24:27.820Z,22.30
2018-12-27T10:26:56.716Z,23.47
2018-12-27T10:29:25.482Z,22.67
2018-12-27T10:31:54.962Z,21.63
2018-12-27T10:34:23.795Z,21.93
2018-12-27T10:36:52.583Z,22.50
2018-12-27T10:39:21.375Z,22.23
2018-12-27T10:41:50.977Z,22.70
2018-12-27T10:44:19.864Z,24.90
2018-12-27T10:46:48.655Z,26.10
2018-12-27T10:49:17.554Z,21.40
2018-12-27T10:51:46.455Z,23.70
2018-12-27T10:54:15.237Z,21.80
2018-12-27T10:56:44.091Z,21.60
2018-12-27T10:59:12.899Z,21.57
2018-12-27T11:01:41.684Z,21.57
2018-12-27T11:04:11.339Z,19.17
2018-12-27T11:06:40.879Z,19.53
2018-12-27T11:09:09.794Z,18.43
2018-12-27T11:11:38.618Z,18.70
2018-12-27T11:14:08.571Z,42.87
2018-12-27T11:16:38.670Z,19.70
2018-12-27T11:19:07.551Z,20.30
2018-12-27T11:21:37.097Z,18.97
2018-12-27T11:24:06.537Z,19.10
2018-12-27T11:26:36.403Z,19.87
2018-12-27T11:29:05.257Z,19.40
2018-12-27T11:31:34.212Z,18.23
2018-12-27T11:34:03.017Z,20.13
2018-12-27T11:36:31.916Z,17.07
2018-12-27T11:39:00.740Z,18.83
2018-12-27T11:41:29.576Z,18.30
2018-12-27T11:43:58.372Z,19.87
2018-12-27T11:46:27.665Z,18.67
2018-12-27T11:48:56.513Z,17.97
2018-12-27T11:51:25.863Z,18.27
2018-12-27T11:53:54.651Z,17.73
2018-12-27T11:56:23.522Z,18.03
2018-12-27T11:58:53.446Z,17.50
2018-12-27T12:01:22.988Z,17.87
2018-12-27T12:03:53.216Z,17.57
2018-12-27T12:06:22.708Z,18.33
2018-12-27T12:08:51.555Z,17.50
2018-12-27T12:11:21.375Z,17.50
2018-12-27T12:13:51.082Z,17.47
2018-12-27T12:16:20.037Z,17.90
2018-12-27T12:18:48.807Z,17.00
2018-12-27T12:21:17.720Z,17.63
2018-12-27T12:23:46.507Z,20.27
2018-12-27T12:26:15.479Z,19.80
2018-12-27T12:28:44.259Z,19.97
2018-12-27T12:31:13.104Z,18.33
2018-12-27T12:33:41.911Z,18.03
2018-12-27T12:36:11.132Z,18.60
2018-12-27T12:38:39.515Z,17.87
2018-12-27T12:41:08.386Z,18.10
2018-12-27T12:43:37.249Z,18.47
2018-12-27T12:46:06.083Z,19.10
2018-12-27T12:48:34.926Z,18.87
2018-12-27T12:51:04.570Z,19.07
2018-12-27T12:53:33.363Z,17.97
2018-12-27T12:56:02.584Z,18.07
2018-12-27T12:58:31.504Z,18.33
2018-12-27T13:01:00.283Z,18.93
2018-12-27T13:03:29.092Z,19.03
2018-12-27T13:05:59.027Z,18.20
2018-12-27T13:08:29.154Z,20.00
2018-12-27T13:10:57.931Z,18.30
2018-12-27T13:13:26.755Z,19.40
2018-12-27T13:15:56.491Z,19.77
2018-12-27T13:18:25.316Z,18.80
2018-12-27T13:20:54.114Z,19.37
2018-12-27T13:23:22.893Z,19.00
2018-12-27T13:25:52.643Z,18.73
2018-12-27T13:28:21.426Z,18.60
2018-12-27T13:30:50.208Z,19.87
2018-12-27T13:33:19.035Z,17.67
2018-12-27T13:35:48.957Z,18.43
2018-12-27T13:38:17.733Z,18.27
2018-12-27T13:40:47.750Z,17.80
2018-12-27T13:43:16.578Z,20.00
2018-12-27T13:45:45.397Z,17.93
2018-12-27T13:48:14.272Z,17.70
2018-12-27T13:50:44.241Z,19.10
2018-12-27T13:53:13.052Z,18.30
2018-12-27T13:55:42.588Z,18.07
2018-12-27T13:58:13.434Z,18.77
2018-12-27T14:00:42.210Z,18.50
2018-12-27T14:03:11.003Z,18.40
2018-12-27T14:05:39.947Z,18.57
2018-12-27T14:08:08.743Z,18.60
2018-12-27T14:10:37.564Z,18.77
2018-12-27T14:13:06.410Z,18.97
2018-12-27T14:15:35.263Z,19.23
2018-12-27T14:18:04.189Z,18.07
2018-12-27T14:20:33.846Z,20.47
2018-12-27T14:23:03.034Z,20.73
2018-12-27T14:25:31.891Z,19.83
2018-12-27T14:28:00.775Z,18.00
2018-12-27T14:30:30.177Z,17.90
2018-12-27T14:32:59.302Z,16.87
2018-12-27T14:35:28.174Z,17.57
2018-12-27T14:37:57.012Z,16.93
2018-12-27T14:40:27.617Z,17.63
2018-12-27T14:42:56.523Z,16.87
2018-12-27T14:45:25.312Z,17.17
2018-12-27T14:47:54.672Z,16.97
2018-12-27T14:50:24.518Z,18.67
2018-12-27T14:52:53.300Z,18.00
2018-12-27T14:55:22.231Z,18.63
2018-12-27T14:57:51.019Z,18.63
2018-12-27T15:00:19.848Z,17.30
2018-12-27T15:02:48.639Z,18.83
2018-12-27T15:05:18.492Z,18.87
2018-12-27T15:07:47.261Z,19.27
2018-12-27T15:10:16.073Z,18.63
2018-12-27T15:12:46.323Z,24.20
2018-12-27T15:15:15.218Z,26.33
2018-12-27T15:17:44.031Z,26.50
2018-12-27T15:20:12.912Z,25.67
2018-12-27T15:22:42.364Z,21.03
2018-12-27T15:25:11.200Z,19.90
2018-12-27T15:27:40.036Z,18.97
2018-12-27T15:30:08.879Z,18.50
2018-12-27T15:32:37.678Z,18.63
2018-12-27T15:35:06.614Z,19.40
2018-12-27T15:37:35.385Z,20.40
2018-12-27T15:40:05.703Z,20.00
2018-12-27T15:42:33.217Z,19.17
2018-12-27T15:45:03.467Z,19.43
2018-12-27T15:47:32.364Z,20.10
2018-12-27T15:50:02.214Z,18.70
2018-12-27T15:52:31.029Z,20.07
2018-12-27T15:54:59.806Z,19.03
2018-12-27T15:57:29.087Z,20.67
2018-12-27T15:59:57.852Z,20.27
2018-12-27T16:02:26.691Z,20.33
2018-12-27T16:04:55.582Z,18.40
2018-12-27T16:07:24.390Z,20.57
2018-12-27T16:09:54.158Z,19.67
2018-12-27T16:12:23.567Z,19.10
2018-12-27T16:14:52.363Z,19.67
2018-12-27T16:17:21.205Z,19.87
2018-12-27T16:19:51.231Z,22.37
2018-12-27T16:22:20.169Z,19.27
2018-12-27T16:24:49.724Z,17.93
2018-12-27T16:27:18.567Z,19.37
2018-12-27T16:29:47.997Z,18.87
2018-12-27T16:32:23.517Z,21.73
2018-12-27T16:34:52.346Z,20.90
2018-12-27T16:37:21.635Z,19.87
2018-12-27T16:39:50.666Z,19.80
2018-12-27T16:42:22.037Z,20.83
2018-12-27T16:44:48.383Z,19.97
2018-12-27T16:47:25.967Z,21.60
2018-12-27T16:49:54.990Z,22.83
2018-12-27T16:52:23.918Z,26.57
2018-12-27T16:54:52.702Z,40.90
2018-12-27T16:57:22.075Z,37.93
2018-12-27T16:59:59.196Z,37.50
2018-12-27T17:02:28.039Z,34.03
2018-12-27T17:04:56.867Z,26.67
2018-12-27T17:07:25.663Z,24.83
2018-12-27T17:09:54.451Z,22.27
2018-12-27T17:12:23.976Z,20.93
2018-12-27T17:14:52.758Z,21.57
2018-12-27T17:17:21.543Z,20.90
2018-12-27T17:19:50.326Z,21.67
2018-12-27T17:22:19.315Z,21.20
2018-12-27T17:24:48.476Z,24.00
2018-12-27T17:27:18.757Z,25.43
2018-12-27T17:29:48.115Z,22.63
2018-12-27T17:32:16.986Z,21.33
2018-12-27T17:34:45.835Z,23.13
2018-12-27T17:37:15.230Z,24.90
2018-12-27T17:39:44.492Z,31.50
2018-12-27T17:42:13.401Z,31.40
2018-12-27T17:44:42.195Z,28.43
2018-12-27T17:47:12.378Z,27.10
2018-12-27T17:49:41.286Z,28.53
2018-12-27T17:52:10.200Z,26.60
2018-12-27T17:54:39.026Z,22.90
2018-12-27T17:57:07.849Z,26.17
2018-12-27T17:59:37.972Z,25.57
2018-12-27T18:02:06.747Z,25.23
2018-12-27T18:04:35.538Z,26.47
2018-12-27T18:07:04.323Z,25.77
2018-12-27T18:09:34.359Z,25.73
2018-12-27T18:12:03.147Z,28.43
2018-12-27T18:14:32.051Z,31.13
2018-12-27T18:17:01.586Z,28.47
2018-12-27T18:19:30.342Z,28.20
2018-12-27T18:21:59.127Z,31.27
2018-12-27T18:24:28.666Z,26.80
2018-12-27T18:26:57.448Z,27.40
2018-12-27T18:29:26.315Z,29.00
2018-12-27T18:31:55.121Z,33.30
2018-12-27T18:34:24.942Z,39.87
2018-12-27T18:36:54.114Z,39.40
2018-12-27T18:39:22.914Z,38.57
2018-12-27T18:41:51.784Z,34.77
2018-12-27T18:44:21.195Z,35.77
2018-12-27T18:46:50.008Z,37.03
2018-12-27T18:49:20.699Z,40.27
2018-12-27T18:51:48.815Z,40.53
2018-12-27T18:54:17.690Z,37.77
2018-12-27T18:56:46.476Z,31.37
2018-12-27T18:59:15.815Z,30.27
2018-12-27T19:01:45.345Z,30.50
2018-12-27T19:04:14.639Z,35.37
2018-12-27T19:06:43.430Z,32.13
2018-12-27T19:09:12.999Z,31.87
2018-12-27T19:11:53.298Z,29.47
2018-12-27T19:14:22.475Z,31.00
2018-12-27T19:16:52.141Z,30.17
2018-12-27T19:19:20.908Z,32.47
2018-12-27T19:22:16.812Z,39.73
2018-12-27T19:24:45.731Z,37.90
2018-12-27T19:27:14.717Z,33.07
2018-12-27T19:29:43.638Z,34.73
2018-12-27T19:32:12.528Z,31.20
2018-12-27T19:34:41.391Z,36.23
2018-12-27T19:37:10.286Z,31.73
2018-12-27T19:39:39.097Z,33.90
2018-12-27T19:42:07.886Z,34.20
2018-12-27T19:44:36.684Z,34.13
2018-12-27T19:47:05.463Z,33.80
2018-12-27T19:49:34.311Z,37.23
2018-12-27T19:52:03.243Z,40.47
2018-12-27T19:54:32.410Z,58.83
2018-12-27T19:57:01.236Z,51.17
2018-12-27T19:59:30.939Z,48.43
2018-12-27T20:01:59.705Z,39.97
2018-12-27T20:04:28.579Z,36.03
2018-12-27T20:06:57.424Z,32.77
2018-12-27T20:09:26.507Z,33.60
2018-12-27T20:11:55.264Z,31.53
2018-12-27T20:14:24.055Z,28.80
2018-12-27T20:16:52.849Z,28.30
2018-12-27T20:19:21.995Z,28.33
2018-12-27T20:21:50.771Z,26.03
2018-12-27T20:24:19.571Z,29.53
2018-12-27T20:26:48.396Z,25.70
2018-12-27T20:29:18.336Z,26.57
2018-12-27T20:31:47.143Z,25.67
2018-12-27T20:34:16.522Z,29.57
2018-12-27T20:36:45.320Z,29.00
2018-12-27T20:39:14.308Z,29.23
2018-12-27T20:41:43.149Z,28.77
2018-12-27T20:44:12.912Z,29.17
2018-12-27T20:46:41.724Z,31.27
2018-12-27T20:49:10.579Z,33.97
2018-12-27T20:51:39.359Z,29.10
2018-12-27T20:54:08.161Z,31.60
2018-12-27T20:56:36.948Z,31.03
2018-12-27T20:59:05.846Z,32.43
2018-12-27T21:01:34.639Z,28.13
2018-12-27T21:04:04.132Z,29.90
2018-12-27T21:06:32.924Z,27.60
2018-12-27T21:09:01.768Z,28.13
2018-12-27T21:11:30.562Z,28.40
2018-12-27T21:13:59.446Z,30.40
2018-12-27T21:16:28.847Z,26.70
2018-12-27T21:18:58.195Z,29.73
2018-12-27T21:21:27.039Z,27.70
2018-12-27T21:23:55.820Z,30.00
2018-12-27T21:26:25.783Z,35.93
2018-12-27T21:28:54.571Z,56.67
2018-12-27T21:31:23.367Z,62.17
2018-12-27T21:33:52.149Z,52.93
2018-12-27T21:36:21.820Z,48.53
2018-12-27T21:38:50.614Z,48.90
2018-12-27T21:41:19.610Z,54.07
2018-12-27T21:43:48.730Z,51.40
2018-12-27T21:46:17.599Z,56.90
2018-12-27T21:48:46.429Z,50.60
2018-12-27T21:51:15.259Z,44.03
2018-12-27T21:53:44.711Z,45.33
2018-12-27T21:56:13.540Z,44.90
2018-12-27T21:58:42.352Z,40.30
2018-12-27T22:01:12.366Z,37.10
2018-12-27T22:03:42.734Z,33.90
2018-12-27T22:06:11.618Z,34.13
2018-12-27T22:08:40.399Z,32.87
2018-12-27T22:11:09.658Z,36.73
2018-12-27T22:13:39.291Z,41.93
2018-12-27T22:16:08.217Z,39.00
2018-12-27T22:18:37.041Z,40.00
2018-12-27T22:21:06.965Z,39.30
2018-12-27T22:23:35.752Z,37.17
2018-12-27T22:26:05.196Z,35.87
2018-12-27T22:28:33.975Z,35.90
2018-12-27T22:31:02.879Z,33.60
2018-12-27T22:33:32.251Z,36.03
2018-12-27T22:36:01.305Z,37.23
2018-12-27T22:38:35.610Z,38.07
2018-12-27T22:40:58.978Z,36.73
2018-12-27T22:43:29.615Z,40.13
2018-12-27T22:45:58.939Z,41.40
2018-12-27T22:48:27.726Z,36.80
2018-12-27T22:50:57.189Z,34.17
2018-12-27T22:53:25.953Z,34.97
2018-12-27T22:55:56.726Z,37.07
2018-12-27T22:58:26.944Z,36.87
2018-12-27T23:00:57.235Z,34.63
2018-12-27T23:03:26.047Z,33.17
2018-12-27T23:05:54.898Z,34.00
2018-12-27T23:08:24.368Z,30.50
2018-12-27T23:10:53.173Z,35.73
2018-12-27T23:13:22.061Z,35.60
2018-12-27T23:15:51.488Z,36.17
2018-12-27T23:18:21.226Z,36.03
2018-12-27T23:20:50.057Z,32.33
2018-12-27T23:23:18.959Z,31.83
2018-12-27T23:25:48.768Z,30.27
2018-12-27T23:28:18.093Z,33.27
2018-12-27T23:30:46.885Z,33.17
2018-12-27T23:33:15.669Z,30.63
2018-12-27T23:35:44.503Z,39.73
2018-12-27T23:38:13.283Z,41.10
2018-12-27T23:40:42.179Z,40.03
2018-12-27T23:43:11.003Z,37.17
2018-12-27T23:45:39.787Z,34.67
2018-12-27T23:48:08.687Z,35.10
2018-12-27T23:50:37.459Z,31.50
2018-12-27T23:53:06.386Z,33.13
2018-12-27T23:55:36.178Z,35.73
2018-12-27T23:58:05.596Z,37.30
